sensor_id;sensor_type;location;lat;lon;timestamp;P1;durP1;ratioP1;P2;durP2;ratioP2
38479;SDS011;62333;51.980;5.934;2023-04-01T00:00:29;3.30;;;0.88;;
38479;SDS011;62333;51.980;5.934;2023-04-01T00:02:55;2.25;;;0.40;;
38479;SDS011;62333;51.980;5.934;2023-04-01T00:05:21;4.30;;;1.15;;
38479;SDS011;62333;51.980;5.934;2023-04-01T00:07:49;4.22;;;0.93;;
38479;SDS011;62333;51.980;5.934;2023-04-01T00:10:16;4.93;;;0.90;;
38479;SDS011;62333;51.980;5.934;2023-04-01T00:12:41;4.75;;;0.60;;
38479;SDS011;62333;51.980;5.934;2023-04-01T00:15:09;4.00;;;1.15;;
38479;SDS011;62333;51.980;5.934;2023-04-01T00:17:36;3.10;;;0.80;;
38479;SDS011;62333;51.980;5.934;2023-04-01T00:20:04;3.85;;;0.80;;
38479;SDS011;62333;51.980;5.934;2023-04-01T00:22:32;2.15;;;0.43;;
38479;SDS011;62333;51.980;5.934;2023-04-01T00:24:58;4.22;;;0.90;;
38479;SDS011;62333;51.980;5.934;2023-04-01T00:27:24;5.00;;;1.48;;
38479;SDS011;62333;51.980;5.934;2023-04-01T00:29:51;5.25;;;1.45;;
38479;SDS011;62333;51.980;5.934;2023-04-01T00:32:16;5.70;;;2.00;;
38479;SDS011;62333;51.980;5.934;2023-04-01T00:34:42;4.20;;;1.10;;
38479;SDS011;62333;51.980;5.934;2023-04-01T00:37:09;5.18;;;1.83;;
38479;SDS011;62333;51.980;5.934;2023-04-01T00:39:35;3.50;;;1.00;;
38479;SDS011;62333;51.980;5.934;2023-04-01T00:42:01;6.70;;;2.45;;
38479;SDS011;62333;51.980;5.934;2023-04-01T00:44:32;3.95;;;1.33;;
38479;SDS011;62333;51.980;5.934;2023-04-01T00:46:59;5.55;;;2.03;;
38479;SDS011;62333;51.980;5.934;2023-04-01T00:49:27;4.68;;;2.72;;
38479;SDS011;62333;51.980;5.934;2023-04-01T00:52:00;5.35;;;1.20;;
38479;SDS011;62333;51.980;5.934;2023-04-01T00:54:28;5.25;;;2.70;;
38479;SDS011;62333;51.980;5.934;2023-04-01T00:59:24;4.95;;;2.20;;
38479;SDS011;62333;51.980;5.934;2023-04-01T01:01:52;5.57;;;3.05;;
38479;SDS011;62333;51.980;5.934;2023-04-01T01:09:37;6.20;;;4.13;;
38479;SDS011;62333;51.980;5.934;2023-04-01T01:12:18;12.27;;;4.85;;
38479;SDS011;62333;51.980;5.934;2023-04-01T01:14:55;12.45;;;5.75;;
38479;SDS011;62333;51.980;5.934;2023-04-01T01:25:40;10.35;;;6.90;;
38479;SDS011;62333;51.980;5.934;2023-04-01T01:36:33;11.77;;;7.03;;
38479;SDS011;62333;51.980;5.934;2023-04-01T01:39:03;9.80;;;7.35;;
38479;SDS011;62333;51.980;5.934;2023-04-01T01:41:31;12.32;;;7.93;;
38479;SDS011;62333;51.980;5.934;2023-04-01T01:43:57;14.75;;;9.25;;
38479;SDS011;62333;51.980;5.934;2023-04-01T01:46:26;14.38;;;7.95;;
38479;SDS011;62333;51.980;5.934;2023-04-01T01:48:54;14.40;;;8.88;;
38479;SDS011;62333;51.980;5.934;2023-04-01T01:51:21;8.27;;;6.57;;
38479;SDS011;62333;51.980;5.934;2023-04-01T01:53:48;12.10;;;7.30;;
38479;SDS011;62333;51.980;5.934;2023-04-01T01:56:13;9.85;;;7.35;;
38479;SDS011;62333;51.980;5.934;2023-04-01T01:58:45;8.73;;;6.15;;
38479;SDS011;62333;51.980;5.934;2023-04-01T02:01:15;8.55;;;5.78;;
38479;SDS011;62333;51.980;5.934;2023-04-01T02:03:45;8.70;;;6.95;;
38479;SDS011;62333;51.980;5.934;2023-04-01T02:06:14;6.05;;;4.68;;
38479;SDS011;62333;51.980;5.934;2023-04-01T02:08:45;6.30;;;5.05;;
38479;SDS011;62333;51.980;5.934;2023-04-01T02:11:16;6.22;;;3.85;;
38479;SDS011;62333;51.980;5.934;2023-04-01T02:16:19;12.38;;;4.18;;
38479;SDS011;62333;51.980;5.934;2023-04-01T02:18:49;6.13;;;3.13;;
38479;SDS011;62333;51.980;5.934;2023-04-01T02:21:18;13.90;;;4.93;;
38479;SDS011;62333;51.980;5.934;2023-04-01T02:23:47;5.45;;;2.55;;
38479;SDS011;62333;51.980;5.934;2023-04-01T02:26:14;8.80;;;3.33;;
38479;SDS011;62333;51.980;5.934;2023-04-01T02:28:41;7.90;;;2.70;;
38479;SDS011;62333;51.980;5.934;2023-04-01T02:31:10;8.38;;;4.55;;
38479;SDS011;62333;51.980;5.934;2023-04-01T02:33:37;5.82;;;2.08;;
38479;SDS011;62333;51.980;5.934;2023-04-01T02:36:05;15.85;;;3.35;;
38479;SDS011;62333;51.980;5.934;2023-04-01T02:38:31;8.68;;;3.72;;
38479;SDS011;62333;51.980;5.934;2023-04-01T02:40:58;9.55;;;4.30;;
38479;SDS011;62333;51.980;5.934;2023-04-01T02:43:26;7.93;;;3.72;;
38479;SDS011;62333;51.980;5.934;2023-04-01T02:45:52;9.48;;;3.55;;
38479;SDS011;62333;51.980;5.934;2023-04-01T02:48:18;9.40;;;3.50;;
38479;SDS011;62333;51.980;5.934;2023-04-01T02:50:43;10.02;;;3.88;;
38479;SDS011;62333;51.980;5.934;2023-04-01T02:53:09;7.50;;;2.80;;
38479;SDS011;62333;51.980;5.934;2023-04-01T02:55:35;11.52;;;4.68;;
38479;SDS011;62333;51.980;5.934;2023-04-01T02:58:01;10.57;;;3.03;;
38479;SDS011;62333;51.980;5.934;2023-04-01T03:00:26;7.60;;;2.85;;
38479;SDS011;62333;51.980;5.934;2023-04-01T03:02:52;7.43;;;3.00;;
38479;SDS011;62333;51.980;5.934;2023-04-01T03:05:19;9.10;;;2.97;;
38479;SDS011;62333;51.980;5.934;2023-04-01T03:07:45;5.15;;;2.78;;
38479;SDS011;62333;51.980;5.934;2023-04-01T03:10:11;5.88;;;3.72;;
38479;SDS011;62333;51.980;5.934;2023-04-01T03:12:37;4.35;;;1.90;;
38479;SDS011;62333;51.980;5.934;2023-04-01T03:15:03;6.10;;;2.28;;
38479;SDS011;62333;51.980;5.934;2023-04-01T03:17:29;4.72;;;2.28;;
38479;SDS011;62333;51.980;5.934;2023-04-01T03:19:55;3.78;;;1.52;;
38479;SDS011;62333;51.980;5.934;2023-04-01T03:22:20;5.47;;;2.42;;
38479;SDS011;62333;51.980;5.934;2023-04-01T03:24:49;4.70;;;2.00;;
38479;SDS011;62333;51.980;5.934;2023-04-01T03:27:15;5.18;;;1.90;;
38479;SDS011;62333;51.980;5.934;2023-04-01T03:29:40;4.13;;;2.22;;
38479;SDS011;62333;51.980;5.934;2023-04-01T03:32:06;3.72;;;1.98;;
38479;SDS011;62333;51.980;5.934;2023-04-01T03:34:32;4.93;;;2.28;;
38479;SDS011;62333;51.980;5.934;2023-04-01T03:36:58;4.30;;;2.58;;
38479;SDS011;62333;51.980;5.934;2023-04-01T03:39:24;3.33;;;1.70;;
38479;SDS011;62333;51.980;5.934;2023-04-01T03:41:50;5.30;;;2.40;;
38479;SDS011;62333;51.980;5.934;2023-04-01T03:44:15;3.38;;;2.42;;
38479;SDS011;62333;51.980;5.934;2023-04-01T03:46:41;3.88;;;2.83;;
38479;SDS011;62333;51.980;5.934;2023-04-01T03:49:07;4.47;;;1.88;;
38479;SDS011;62333;51.980;5.934;2023-04-01T03:51:40;4.32;;;2.30;;
38479;SDS011;62333;51.980;5.934;2023-04-01T03:54:07;5.18;;;2.25;;
38479;SDS011;62333;51.980;5.934;2023-04-01T03:56:33;5.03;;;2.65;;
38479;SDS011;62333;51.980;5.934;2023-04-01T03:59:01;4.40;;;2.13;;
38479;SDS011;62333;51.980;5.934;2023-04-01T04:01:28;5.15;;;3.20;;
38479;SDS011;62333;51.980;5.934;2023-04-01T04:03:55;5.00;;;2.65;;
38479;SDS011;62333;51.980;5.934;2023-04-01T04:06:22;3.95;;;2.30;;
38479;SDS011;62333;51.980;5.934;2023-04-01T04:08:48;6.10;;;2.63;;
38479;SDS011;62333;51.980;5.934;2023-04-01T04:11:14;5.30;;;2.63;;
38479;SDS011;62333;51.980;5.934;2023-04-01T04:13:41;4.65;;;2.78;;
38479;SDS011;62333;51.980;5.934;2023-04-01T04:16:07;4.43;;;2.10;;
38479;SDS011;62333;51.980;5.934;2023-04-01T04:18:34;4.88;;;2.60;;
38479;SDS011;62333;51.980;5.934;2023-04-01T04:21:01;5.10;;;2.80;;
38479;SDS011;62333;51.980;5.934;2023-04-01T04:23:27;4.78;;;2.47;;
38479;SDS011;62333;51.980;5.934;2023-04-01T04:26:02;4.30;;;3.08;;
38479;SDS011;62333;51.980;5.934;2023-04-01T04:28:29;4.05;;;2.80;;
38479;SDS011;62333;51.980;5.934;2023-04-01T04:30:55;7.47;;;3.75;;
38479;SDS011;62333;51.980;5.934;2023-04-01T04:33:22;4.13;;;2.45;;
38479;SDS011;62333;51.980;5.934;2023-04-01T04:35:48;4.68;;;3.00;;
38479;SDS011;62333;51.980;5.934;2023-04-01T04:38:14;6.10;;;4.10;;
38479;SDS011;62333;51.980;5.934;2023-04-01T04:40:40;4.70;;;3.42;;
38479;SDS011;62333;51.980;5.934;2023-04-01T04:43:09;7.30;;;4.25;;
38479;SDS011;62333;51.980;5.934;2023-04-01T04:45:36;5.53;;;3.80;;
38479;SDS011;62333;51.980;5.934;2023-04-01T04:48:02;7.75;;;4.95;;
38479;SDS011;62333;51.980;5.934;2023-04-01T04:50:27;10.70;;;4.55;;
38479;SDS011;62333;51.980;5.934;2023-04-01T04:52:53;4.68;;;3.63;;
38479;SDS011;62333;51.980;5.934;2023-04-01T04:55:19;5.00;;;3.22;;
38479;SDS011;62333;51.980;5.934;2023-04-01T04:57:45;5.93;;;3.60;;
38479;SDS011;62333;51.980;5.934;2023-04-01T05:00:11;6.88;;;5.18;;
38479;SDS011;62333;51.980;5.934;2023-04-01T05:02:37;3.88;;;2.92;;
38479;SDS011;62333;51.980;5.934;2023-04-01T05:05:02;4.25;;;3.00;;
38479;SDS011;62333;51.980;5.934;2023-04-01T05:07:29;4.60;;;3.05;;
38479;SDS011;62333;51.980;5.934;2023-04-01T05:09:55;3.90;;;2.53;;
38479;SDS011;62333;51.980;5.934;2023-04-01T05:12:20;5.65;;;2.90;;
38479;SDS011;62333;51.980;5.934;2023-04-01T05:14:46;5.30;;;3.45;;
38479;SDS011;62333;51.980;5.934;2023-04-01T05:17:12;6.72;;;3.47;;
38479;SDS011;62333;51.980;5.934;2023-04-01T05:19:38;4.57;;;3.13;;
38479;SDS011;62333;51.980;5.934;2023-04-01T05:22:04;3.83;;;2.85;;
38479;SDS011;62333;51.980;5.934;2023-04-01T05:24:31;5.72;;;3.22;;
38479;SDS011;62333;51.980;5.934;2023-04-01T05:26:57;3.95;;;2.45;;
38479;SDS011;62333;51.980;5.934;2023-04-01T05:29:23;5.95;;;3.28;;
38479;SDS011;62333;51.980;5.934;2023-04-01T05:31:50;3.85;;;2.40;;
38479;SDS011;62333;51.980;5.934;2023-04-01T05:34:16;5.75;;;3.30;;
38479;SDS011;62333;51.980;5.934;2023-04-01T05:36:41;5.80;;;3.92;;
38479;SDS011;62333;51.980;5.934;2023-04-01T05:39:08;5.25;;;3.47;;
38479;SDS011;62333;51.980;5.934;2023-04-01T05:41:37;4.70;;;3.10;;
38479;SDS011;62333;51.980;5.934;2023-04-01T05:44:04;6.38;;;3.78;;
38479;SDS011;62333;51.980;5.934;2023-04-01T05:46:30;5.03;;;4.30;;
38479;SDS011;62333;51.980;5.934;2023-04-01T05:48:56;6.00;;;4.30;;
38479;SDS011;62333;51.980;5.934;2023-04-01T05:51:22;5.15;;;3.28;;
38479;SDS011;62333;51.980;5.934;2023-04-01T05:53:48;4.50;;;3.72;;
38479;SDS011;62333;51.980;5.934;2023-04-01T05:56:14;4.75;;;3.22;;
38479;SDS011;62333;51.980;5.934;2023-04-01T05:58:39;4.20;;;2.90;;
38479;SDS011;62333;51.980;5.934;2023-04-01T06:01:06;4.75;;;2.75;;
38479;SDS011;62333;51.980;5.934;2023-04-01T06:03:33;3.95;;;2.22;;
38479;SDS011;62333;51.980;5.934;2023-04-01T06:05:59;4.20;;;2.20;;
38479;SDS011;62333;51.980;5.934;2023-04-01T06:08:26;4.07;;;2.30;;
38479;SDS011;62333;51.980;5.934;2023-04-01T06:16:34;5.78;;;3.83;;
38479;SDS011;62333;51.980;5.934;2023-04-01T06:19:22;5.47;;;2.88;;
38479;SDS011;62333;51.980;5.934;2023-04-01T06:22:20;6.82;;;3.65;;
38479;SDS011;62333;51.980;5.934;2023-04-01T06:27:52;8.90;;;5.40;;
38479;SDS011;62333;51.980;5.934;2023-04-01T06:39:24;7.95;;;4.07;;
38479;SDS011;62333;51.980;5.934;2023-04-01T06:53:03;9.40;;;5.93;;
38479;SDS011;62333;51.980;5.934;2023-04-01T06:56:17;9.95;;;4.97;;
38479;SDS011;62333;51.980;5.934;2023-04-01T06:58:26;7.50;;;4.00;;
38479;SDS011;62333;51.980;5.934;2023-04-01T07:01:01;9.60;;;5.18;;
38479;SDS011;62333;51.980;5.934;2023-04-01T07:03:41;9.68;;;4.40;;
38479;SDS011;62333;51.980;5.934;2023-04-01T07:06:14;8.85;;;4.18;;
38479;SDS011;62333;51.980;5.934;2023-04-01T07:09:05;6.63;;;3.15;;
38479;SDS011;62333;51.980;5.934;2023-04-01T07:11:36;6.90;;;3.72;;
38479;SDS011;62333;51.980;5.934;2023-04-01T07:16:48;5.90;;;2.85;;
38479;SDS011;62333;51.980;5.934;2023-04-01T07:22:41;4.25;;;1.92;;
38479;SDS011;62333;51.980;5.934;2023-04-01T07:25:17;3.60;;;1.90;;
38479;SDS011;62333;51.980;5.934;2023-04-01T07:28:05;4.43;;;1.52;;
38479;SDS011;62333;51.980;5.934;2023-04-01T07:31:18;3.22;;;1.70;;
38479;SDS011;62333;51.980;5.934;2023-04-01T07:36:33;2.45;;;0.90;;
38479;SDS011;62333;51.980;5.934;2023-04-01T07:39:08;1.83;;;0.80;;
38479;SDS011;62333;51.980;5.934;2023-04-01T07:41:49;2.30;;;0.68;;
38479;SDS011;62333;51.980;5.934;2023-04-01T07:44:31;2.63;;;0.70;;
38479;SDS011;62333;51.980;5.934;2023-04-01T08:00:42;1.83;;;0.63;;
38479;SDS011;62333;51.980;5.934;2023-04-01T08:11:43;1.45;;;0.57;;
38479;SDS011;62333;51.980;5.934;2023-04-01T08:23:02;1.67;;;0.47;;
38479;SDS011;62333;51.980;5.934;2023-04-01T08:25:43;2.22;;;0.70;;
38479;SDS011;62333;51.980;5.934;2023-04-01T08:30:57;2.40;;;1.08;;
38479;SDS011;62333;51.980;5.934;2023-04-01T08:33:31;1.27;;;0.47;;
38479;SDS011;62333;51.980;5.934;2023-04-01T08:38:34;1.23;;;0.40;;
38479;SDS011;62333;51.980;5.934;2023-04-01T08:41:28;1.40;;;0.60;;
38479;SDS011;62333;51.980;5.934;2023-04-01T08:46:51;1.23;;;0.43;;
38479;SDS011;62333;51.980;5.934;2023-04-01T08:52:29;1.13;;;0.30;;
38479;SDS011;62333;51.980;5.934;2023-04-01T08:55:15;0.57;;;0.20;;
38479;SDS011;62333;51.980;5.934;2023-04-01T09:00:49;0.60;;;0.10;;
38479;SDS011;62333;51.980;5.934;2023-04-01T09:11:30;0.70;;;0.20;;
38479;SDS011;62333;51.980;5.934;2023-04-01T09:17:27;0.57;;;0.38;;
38479;SDS011;62333;51.980;5.934;2023-04-01T09:20:18;0.60;;;0.10;;
38479;SDS011;62333;51.980;5.934;2023-04-01T09:23:02;0.63;;;0.10;;
38479;SDS011;62333;51.980;5.934;2023-04-01T10:30:05;2.03;;;0.63;;
38479;SDS011;62333;51.980;5.934;2023-04-01T10:35:46;2.90;;;1.38;;
38479;SDS011;62333;51.980;5.934;2023-04-01T10:52:18;2.80;;;1.23;;
38479;SDS011;62333;51.980;5.934;2023-04-01T11:27:47;4.07;;;2.30;;
38479;SDS011;62333;51.980;5.934;2023-04-01T11:41:56;1.48;;;0.30;;
38479;SDS011;62333;51.980;5.934;2023-04-01T11:44:39;1.10;;;0.40;;
38479;SDS011;62333;51.980;5.934;2023-04-01T11:56:09;1.00;;;0.40;;
38479;SDS011;62333;51.980;5.934;2023-04-01T12:15:11;0.45;;;0.20;;
38479;SDS011;62333;51.980;5.934;2023-04-01T12:37:41;1.20;;;0.50;;
38479;SDS011;62333;51.980;5.934;2023-04-01T12:45:44;1.13;;;0.32;;
38479;SDS011;62333;51.980;5.934;2023-04-01T12:57:02;1.35;;;0.30;;
38479;SDS011;62333;51.980;5.934;2023-04-01T13:04:50;1.40;;;0.40;;
38479;SDS011;62333;51.980;5.934;2023-04-01T13:07:21;1.52;;;0.70;;
38479;SDS011;62333;51.980;5.934;2023-04-01T13:10:18;0.80;;;0.32;;
38479;SDS011;62333;51.980;5.934;2023-04-01T13:15:51;1.02;;;0.40;;
38479;SDS011;62333;51.980;5.934;2023-04-01T13:18:42;1.17;;;0.57;;
38479;SDS011;62333;51.980;5.934;2023-04-01T13:21:21;1.20;;;0.57;;
38479;SDS011;62333;51.980;5.934;2023-04-01T13:32:31;0.98;;;0.38;;
38479;SDS011;62333;51.980;5.934;2023-04-01T13:40:49;1.33;;;0.20;;
38479;SDS011;62333;51.980;5.934;2023-04-01T13:43:22;0.60;;;0.20;;
38479;SDS011;62333;51.980;5.934;2023-04-01T13:53:55;3.13;;;0.40;;
38479;SDS011;62333;51.980;5.934;2023-04-01T14:02:38;0.52;;;0.28;;
38479;SDS011;62333;51.980;5.934;2023-04-01T14:08:17;0.32;;;0.10;;
38479;SDS011;62333;51.980;5.934;2023-04-01T14:11:05;0.57;;;0.20;;
38479;SDS011;62333;51.980;5.934;2023-04-01T14:14:24;3.22;;;0.77;;
38479;SDS011;62333;51.980;5.934;2023-04-01T14:19:30;2.15;;;0.38;;
38479;SDS011;62333;51.980;5.934;2023-04-01T14:24:45;0.75;;;0.22;;
38479;SDS011;62333;51.980;5.934;2023-04-01T14:44:10;1.17;;;0.50;;
38479;SDS011;62333;51.980;5.934;2023-04-01T14:49:40;0.80;;;0.30;;
38479;SDS011;62333;51.980;5.934;2023-04-01T14:52:27;1.27;;;0.52;;
38479;SDS011;62333;51.980;5.934;2023-04-01T14:54:56;1.00;;;0.38;;
38479;SDS011;62333;51.980;5.934;2023-04-01T14:57:24;1.40;;;0.30;;
38479;SDS011;62333;51.980;5.934;2023-04-01T15:02:49;0.75;;;0.20;;
38479;SDS011;62333;51.980;5.934;2023-04-01T15:08:07;0.98;;;0.20;;
38479;SDS011;62333;51.980;5.934;2023-04-01T15:13:19;1.65;;;0.20;;
38479;SDS011;62333;51.980;5.934;2023-04-01T15:16:20;0.70;;;0.30;;
38479;SDS011;62333;51.980;5.934;2023-04-01T15:21:50;1.13;;;0.30;;
38479;SDS011;62333;51.980;5.934;2023-04-01T15:27:12;1.02;;;0.38;;
38479;SDS011;62333;51.980;5.934;2023-04-01T15:44:01;1.75;;;0.88;;
38479;SDS011;62333;51.980;5.934;2023-04-01T15:49:22;1.73;;;1.00;;
38479;SDS011;62333;51.980;5.934;2023-04-01T16:11:14;1.73;;;0.82;;
38479;SDS011;62333;51.980;5.934;2023-04-01T16:13:48;1.90;;;0.90;;
38479;SDS011;62333;51.980;5.934;2023-04-01T16:22:09;2.90;;;1.00;;
38479;SDS011;62333;51.980;5.934;2023-04-01T16:38:48;2.45;;;1.38;;
38479;SDS011;62333;51.980;5.934;2023-04-01T16:41:25;2.35;;;1.10;;
38479;SDS011;62333;51.980;5.934;2023-04-01T16:43:59;2.20;;;0.98;;
38479;SDS011;62333;51.980;5.934;2023-04-01T16:46:41;2.67;;;1.02;;
38479;SDS011;62333;51.980;5.934;2023-04-01T16:54:51;1.73;;;0.80;;
38479;SDS011;62333;51.980;5.934;2023-04-01T17:03:26;2.08;;;1.00;;
38479;SDS011;62333;51.980;5.934;2023-04-01T17:11:27;2.50;;;1.15;;
38479;SDS011;62333;51.980;5.934;2023-04-01T17:14:14;3.85;;;0.80;;
38479;SDS011;62333;51.980;5.934;2023-04-01T17:19:46;3.17;;;1.30;;
38479;SDS011;62333;51.980;5.934;2023-04-01T17:27:38;2.00;;;0.90;;
38479;SDS011;62333;51.980;5.934;2023-04-01T17:35:32;2.03;;;0.95;;
38479;SDS011;62333;51.980;5.934;2023-04-01T17:48:56;2.17;;;1.25;;
38479;SDS011;62333;51.980;5.934;2023-04-01T17:51:32;2.40;;;1.17;;
38479;SDS011;62333;51.980;5.934;2023-04-01T17:57:07;1.92;;;1.17;;
38479;SDS011;62333;51.980;5.934;2023-04-01T18:17:19;2.72;;;1.60;;
38479;SDS011;62333;51.980;5.934;2023-04-01T18:22:45;4.85;;;2.92;;
38479;SDS011;62333;51.980;5.934;2023-04-01T18:25:19;10.18;;;5.35;;
38479;SDS011;62333;51.980;5.934;2023-04-01T18:28:06;15.23;;;8.32;;
38479;SDS011;62333;51.980;5.934;2023-04-01T18:30:35;9.07;;;5.40;;
38479;SDS011;62333;51.980;5.934;2023-04-01T18:35:58;5.18;;;2.72;;
38479;SDS011;62333;51.980;5.934;2023-04-01T18:38:44;5.38;;;3.92;;
38479;SDS011;62333;51.980;5.934;2023-04-01T18:49:46;4.15;;;2.53;;
38479;SDS011;62333;51.980;5.934;2023-04-01T18:52:42;3.40;;;2.65;;
38479;SDS011;62333;51.980;5.934;2023-04-01T18:55:23;3.72;;;2.58;;
38479;SDS011;62333;51.980;5.934;2023-04-01T19:00:39;2.50;;;1.73;;
38479;SDS011;62333;51.980;5.934;2023-04-01T19:05:48;3.17;;;2.17;;
38479;SDS011;62333;51.980;5.934;2023-04-01T19:08:27;2.63;;;1.58;;
38479;SDS011;62333;51.980;5.934;2023-04-01T19:11:05;3.42;;;2.40;;
38479;SDS011;62333;51.980;5.934;2023-04-01T19:13:48;3.38;;;2.00;;
38479;SDS011;62333;51.980;5.934;2023-04-01T19:16:27;2.80;;;1.70;;
38479;SDS011;62333;51.980;5.934;2023-04-01T19:31:24;5.32;;;2.83;;
38479;SDS011;62333;51.980;5.934;2023-04-01T19:34:16;3.65;;;2.53;;
38479;SDS011;62333;51.980;5.934;2023-04-01T19:36:50;3.58;;;2.22;;
38479;SDS011;62333;51.980;5.934;2023-04-01T19:42:41;2.60;;;1.63;;
38479;SDS011;62333;51.980;5.934;2023-04-01T19:48:09;2.88;;;2.20;;
38479;SDS011;62333;51.980;5.934;2023-04-01T19:51:07;3.47;;;1.73;;
38479;SDS011;62333;51.980;5.934;2023-04-01T19:56:47;2.90;;;1.70;;
38479;SDS011;62333;51.980;5.934;2023-04-01T19:59:31;3.65;;;2.25;;
38479;SDS011;62333;51.980;5.934;2023-04-01T20:07:09;6.47;;;3.65;;
38479;SDS011;62333;51.980;5.934;2023-04-01T20:18:08;3.88;;;2.97;;
38479;SDS011;62333;51.980;5.934;2023-04-01T20:20:41;5.63;;;3.70;;
38479;SDS011;62333;51.980;5.934;2023-04-01T20:26:11;3.63;;;2.70;;
38479;SDS011;62333;51.980;5.934;2023-04-01T20:53:17;5.32;;;4.13;;
38479;SDS011;62333;51.980;5.934;2023-04-01T21:09:14;6.18;;;4.32;;
38479;SDS011;62333;51.980;5.934;2023-04-01T21:14:33;6.43;;;3.53;;
38479;SDS011;62333;51.980;5.934;2023-04-01T21:17:17;4.70;;;3.58;;
38479;SDS011;62333;51.980;5.934;2023-04-01T21:19:58;4.93;;;4.07;;
38479;SDS011;62333;51.980;5.934;2023-04-01T21:54:58;3.85;;;2.63;;
38479;SDS011;62333;51.980;5.934;2023-04-01T22:00:25;2.90;;;2.22;;
38479;SDS011;62333;51.980;5.934;2023-04-01T22:06:28;2.80;;;1.63;;
38479;SDS011;62333;51.980;5.934;2023-04-01T22:09:00;3.22;;;1.85;;
38479;SDS011;62333;51.980;5.934;2023-04-01T22:11:34;2.97;;;1.98;;
38479;SDS011;62333;51.980;5.934;2023-04-01T22:14:18;3.95;;;2.30;;
38479;SDS011;62333;51.980;5.934;2023-04-01T22:19:33;3.10;;;2.00;;
38479;SDS011;62333;51.980;5.934;2023-04-01T22:22:39;3.83;;;2.00;;
38479;SDS011;62333;51.980;5.934;2023-04-01T22:25:31;2.63;;;1.80;;
38479;SDS011;62333;51.980;5.934;2023-04-01T22:28:00;4.18;;;2.28;;
38479;SDS011;62333;51.980;5.934;2023-04-01T22:30:33;4.20;;;2.28;;
38479;SDS011;62333;51.980;5.934;2023-04-01T22:43:55;4.85;;;3.22;;
38479;SDS011;62333;51.980;5.934;2023-04-01T22:49:00;9.52;;;3.25;;
38479;SDS011;62333;51.980;5.934;2023-04-01T22:52:11;3.30;;;2.47;;
38479;SDS011;62333;51.980;5.934;2023-04-01T22:54:27;3.67;;;2.72;;
38479;SDS011;62333;51.980;5.934;2023-04-01T22:57:08;3.97;;;2.45;;
38479;SDS011;62333;51.980;5.934;2023-04-01T23:02:59;3.53;;;1.77;;
38479;SDS011;62333;51.980;5.934;2023-04-01T23:05:29;3.83;;;2.00;;
38479;SDS011;62333;51.980;5.934;2023-04-01T23:11:00;3.42;;;2.25;;
38479;SDS011;62333;51.980;5.934;2023-04-01T23:13:31;2.58;;;1.65;;
38479;SDS011;62333;51.980;5.934;2023-04-01T23:16:02;3.38;;;1.80;;
38479;SDS011;62333;51.980;5.934;2023-04-01T23:26:38;3.78;;;2.80;;
38479;SDS011;62333;51.980;5.934;2023-04-01T23:29:25;4.53;;;2.88;;
38479;SDS011;62333;51.980;5.934;2023-04-01T23:32:04;7.10;;;4.03;;
38479;SDS011;62333;51.980;5.934;2023-04-01T23:34:38;4.10;;;3.28;;
38479;SDS011;62333;51.980;5.934;2023-04-01T23:37:05;5.05;;;3.03;;
38479;SDS011;62333;51.980;5.934;2023-04-01T23:42:18;4.90;;;3.35;;
38479;SDS011;62333;51.980;5.934;2023-04-01T23:44:48;6.32;;;3.58;;
38479;SDS011;62333;51.980;5.934;2023-04-01T23:47:20;4.20;;;3.20;;
38479;SDS011;62333;51.980;5.934;2023-04-01T23:49:50;5.13;;;3.63;;
38479;SDS011;62333;51.980;5.934;2023-04-01T23:52:42;5.60;;;3.33;;
38479;SDS011;62333;51.980;5.934;2023-04-01T23:58:00;4.90;;;2.88;;
